Terminal Aerodrome Forecast
Issued by NWS

Home | Current Version | Previous Version | Text Only | Print | Product List | Glossary On
Versions: 1 2 3 4 5 6 7 8 9 10 11 12 13 14 15 16 17
476
FTUS42 KGSP 171730
TAFGMU
TAF
KGMU 171730Z 1718/1818 23007KT P6SM VCTS SCT050CB
     FM172300 23006KT P6SM SCT050
     FM180500 24004KT P6SM FEW250
     FM181600 25008KT P6SM FEW045=

USA.gov is the U.S. government's official web portal to all federal, state and local government web resources and services.